Time;durP1;ratioP1;P1;durP2;ratioP2;P2;SDS_P1;SDS_P2;PMS_P1;PMS_P2;Temp;Humidity;BMP_temperature;BMP_pressure;BME280_temperature;BME280_humidity;BME280_pressure;Samples;Min_cycle;Max_cycle;Signal;HPM_P1;HPM_P2
2023/06/17 00:00:57;;;;;;;17.58;8.45;;;;;;;27.87;83.17;97572.69;4964263;28;20047;-68
2023/06/17 00:03:26;;;;;;;15.80;7.90;;;;;;;27.88;83.18;97574.28;4966447;28;20057;-68
2023/06/17 00:05:57;;;;;;;16.90;9.23;;;;;;;27.87;83.41;97569.19;4965971;28;20046;-68
2023/06/17 00:08:27;;;;;;;15.63;8.63;;;;;;;27.87;83.63;97563.75;4965099;28;20054;-68
2023/06/17 00:10:56;;;;;;;14.30;8.85;;;;;;;27.87;83.54;97563.75;4964074;28;20134;-67
2023/06/17 00:13:26;;;;;;;15.90;10.10;;;;;;;27.89;83.48;97564.19;4957747;28;20057;-67
2023/06/17 00:15:59;;;;;;;18.38;9.55;;;;;;;27.86;83.11;97560.22;4966177;28;20042;-69
2023/06/17 00:18:28;;;;;;;16.52;9.13;;;;;;;27.93;83.20;97567.84;4964565;28;20054;-67
2023/06/17 00:20:57;;;;;;;19.90;9.55;;;;;;;27.93;83.10;97559.66;4967102;28;20154;-67
2023/06/17 00:23:27;;;;;;;15.98;10.18;;;;;;;27.91;82.96;97562.75;4966533;28;20130;-67
2023/06/17 00:25:56;;;;;;;13.63;9.25;;;;;;;27.95;83.15;97565.59;4965239;28;20069;-70
2023/06/17 00:28:26;;;;;;;14.90;9.18;;;;;;;27.94;82.71;97564.00;4961341;28;20068;-68
2023/06/17 00:30:55;;;;;;;14.57;8.80;;;;;;;27.96;82.50;97572.63;4965947;28;20066;-69
2023/06/17 00:33:24;;;;;;;14.57;9.13;;;;;;;27.98;82.04;97575.81;4957289;28;20051;-69
2023/06/17 00:35:53;;;;;;;18.20;9.23;;;;;;;27.99;82.01;97580.13;4949819;28;20146;-69
2023/06/17 00:38:23;;;;;;;18.27;8.95;;;;;;;28.02;82.08;97584.88;4964082;28;20058;-68
2023/06/17 00:40:53;;;;;;;17.20;10.05;;;;;;;28.04;82.21;97596.25;4958207;28;20505;-69
2023/06/17 00:43:22;;;;;;;15.00;8.65;;;;;;;28.05;82.72;97598.66;4963787;28;20046;-69
2023/06/17 00:45:52;;;;;;;14.43;9.70;;;;;;;28.05;82.59;97609.53;4948650;28;20482;-69
2023/06/17 00:48:23;;;;;;;14.77;9.55;;;;;;;28.10;82.62;97624.91;4958688;28;20055;-69
2023/06/17 00:50:53;;;;;;;16.30;9.02;;;;;;;28.11;83.05;97627.28;4960954;28;20047;-69
2023/06/17 00:53:23;;;;;;;16.75;9.23;;;;;;;28.14;83.24;97631.28;4964829;28;20058;-69
2023/06/17 00:55:52;;;;;;;19.50;9.77;;;;;;;28.16;82.34;97629.00;4962179;28;20045;-69
2023/06/17 00:58:21;;;;;;;18.25;9.75;;;;;;;28.18;82.21;97637.66;4964971;28;20137;-69
2023/06/17 01:00:54;;;;;;;15.52;9.45;;;;;;;28.20;81.73;97635.38;4965848;28;20135;-70
2023/06/17 01:03:24;;;;;;;;;;;;;;;28.23;81.01;97629.28;4949889;28;20146;-68
2023/06/17 01:05:59;;;;;;;12.82;8.63;;;;;;;28.36;82.24;97630.13;4965528;28;19926;-69
2023/06/17 01:08:37;;;;;;;15.93;9.38;;;;;;;28.40;82.02;97631.88;4959997;28;20434;-69
2023/06/17 01:11:12;;;;;;;17.92;8.88;;;;;;;28.42;81.72;97632.31;4962376;28;20554;-68
2023/06/17 01:13:48;;;;;;;17.10;8.32;;;;;;;28.43;81.53;97630.38;4961155;28;20852;-69
2023/06/17 01:16:20;;;;;;;17.50;8.77;;;;;;;28.44;81.23;97632.78;4968721;28;20046;-69
2023/06/17 01:18:52;;;;;;;13.68;8.43;;;;;;;28.45;81.56;97626.22;4969310;28;20039;-69
2023/06/17 01:21:22;;;;;;;15.90;9.23;;;;;;;28.52;82.39;97625.66;4962349;28;20061;-69
2023/06/17 01:23:58;;;;;;;19.60;8.30;;;;;;;28.54;82.13;97626.13;4960282;28;20490;-69
2023/06/17 01:26:31;;;;;;;15.30;7.78;;;;;;;28.63;83.17;97628.75;4960995;28;20288;-69
2023/06/17 01:29:00;;;;;;;;;;;;;;;28.71;82.98;97630.63;4968863;28;20143;-69
2023/06/17 01:31:31;;;;;;;18.40;8.88;;;;;;;28.79;83.04;97640.66;4985331;28;19938;-69
2023/06/17 01:34:02;;;;;;;15.48;8.52;;;;;;;28.90;83.45;97630.91;4969943;28;20082;-69
2023/06/17 01:36:36;;;;;;;18.75;8.40;;;;;;;28.98;81.90;97628.09;4969089;28;20054;-69
2023/06/17 01:39:07;;;;;;;13.02;7.75;;;;;;;29.09;81.13;97633.88;4969440;28;20050;-69
2023/06/17 01:41:39;;;;;;;15.05;8.55;;;;;;;29.24;80.89;97635.97;4968985;28;20469;-70
2023/06/17 01:44:11;;;;;;;11.70;7.03;;;;;;;29.39;79.49;97639.94;4960034;28;20043;-69
2023/06/17 01:46:42;;;;;;;17.45;8.15;;;;;;;29.60;79.33;97637.13;4982765;28;20042;-69
2023/06/17 01:49:12;;;;;;;15.77;7.35;;;;;;;29.84;76.91;97646.06;4968265;28;20050;-69
2023/06/17 01:51:41;;;;;;;15.18;7.00;;;;;;;30.18;75.91;97642.03;4969667;28;20060;-69
2023/06/17 01:54:11;;;;;;;11.60;5.72;;;;;;;30.40;70.83;97642.66;4968148;28;20085;-69
2023/06/17 01:56:40;;;;;;;10.32;5.05;;;;;;;30.75;68.87;97651.88;4968550;28;20130;-68
2023/06/17 01:59:10;;;;;;;13.68;5.75;;;;;;;31.40;66.96;97642.25;4960617;28;20046;-70
2023/06/17 02:01:39;;;;;;;13.02;5.85;;;;;;;31.96;63.95;97640.03;4950935;28;20050;-69
2023/06/17 02:04:08;;;;;;;13.20;5.47;;;;;;;32.53;61.41;97643.97;4964112;28;20126;-69
2023/06/17 02:06:39;;;;;;;12.88;5.97;;;;;;;32.95;61.73;97647.59;4967723;28;20043;-70
2023/06/17 02:09:09;;;;;;;10.82;5.03;;;;;;;33.24;58.24;97651.63;4967986;28;20105;-69
2023/06/17 02:11:41;;;;;;;13.93;5.90;;;;;;;33.58;59.04;97665.53;4967530;28;20125;-67
2023/06/17 02:14:10;;;;;;;11.95;4.65;;;;;;;33.83;57.18;97664.78;4967634;28;20050;-67
2023/06/17 02:16:45;;;;;;;11.10;4.97;;;;;;;34.05;56.49;97665.88;4964955;28;20054;-67
2023/06/17 02:19:15;;;;;;;10.52;4.88;;;;;;;34.11;55.83;97682.84;4967087;28;20450;-67
2023/06/17 02:21:47;;;;;;;10.30;5.18;;;;;;;33.92;56.07;97685.69;4966817;28;20479;-68
2023/06/17 02:24:17;;;;;;;14.20;5.78;;;;;;;33.86;56.38;97682.47;4966791;28;20078;-67
2023/06/17 02:26:47;;;;;;;15.25;6.30;;;;;;;33.40;54.36;97687.22;4963295;28;20157;-69
2023/06/17 02:29:17;;;;;;;20.27;5.80;;;;;;;33.80;55.26;97697.69;4968728;28;20053;-68
2023/06/17 02:31:47;;;;;;;20.30;7.35;;;;;;;33.52;54.52;97689.75;4960767;28;20051;-67
2023/06/17 02:34:19;;;;;;;17.35;7.20;;;;;;;33.94;53.29;97702.63;4961617;28;20137;-68
2023/06/17 02:36:49;;;;;;;20.98;8.32;;;;;;;34.41;52.58;97702.91;4966824;28;20838;-68
2023/06/17 02:39:20;;;;;;;14.93;8.60;;;;;;;34.18;52.34;97707.69;4966575;28;20146;-68
2023/06/17 02:41:49;;;;;;;29.50;8.27;;;;;;;34.21;52.25;97713.22;4967421;28;20055;-68
2023/06/17 02:44:18;;;;;;;23.42;8.82;;;;;;;34.04;52.71;97710.19;4966707;28;20058;-68
2023/06/17 02:46:48;;;;;;;17.25;7.63;;;;;;;34.38;51.22;97703.66;4951834;28;20117;-68
2023/06/17 02:49:19;;;;;;;19.90;8.75;;;;;;;34.52;50.37;97712.06;4959149;28;20141;-68
2023/06/17 02:51:48;;;;;;;25.08;9.38;;;;;;;34.36;49.86;97711.47;4968031;28;20530;-67
2023/06/17 02:54:18;;;;;;;19.50;7.97;;;;;;;34.77;50.78;97708.88;4966810;28;20490;-67
2023/06/17 02:56:47;;;;;;;14.05;7.65;;;;;;;34.52;49.60;97714.81;4966306;28;20482;-68
2023/06/17 02:59:18;;;;;;;19.42;7.22;;;;;;;34.85;49.50;97711.34;4957730;28;20042;-68
2023/06/17 03:01:50;;;;;;;19.23;7.32;;;;;;;35.15;49.99;97714.00;4960524;28;20756;-69
2023/06/17 03:04:20;;;;;;;16.80;8.73;;;;;;;35.41;49.59;97715.84;4958046;28;20136;-67
2023/06/17 03:06:50;;;;;;;15.80;6.72;;;;;;;35.44;47.63;97707.66;4967554;28;20646;-68
2023/06/17 03:09:20;;;;;;;13.23;6.95;;;;;;;35.45;48.14;97711.19;4959501;28;20058;-68
2023/06/17 03:11:49;;;;;;;15.32;7.15;;;;;;;35.59;48.90;97709.34;4967423;28;20054;-68
2023/06/17 03:14:19;;;;;;;13.93;6.28;;;;;;;35.60;47.49;97718.41;4964411;28;20054;-68
2023/06/17 03:16:50;;;;;;;15.57;6.43;;;;;;;35.12;45.70;97709.25;4967247;28;20074;-70
2023/06/17 03:19:22;;;;;;;18.75;6.45;;;;;;;35.23;47.63;97714.91;4961853;28;20058;-68
2023/06/17 03:21:52;;;;;;;14.17;7.10;;;;;;;35.44;47.32;97715.13;4950801;28;20047;-67
2023/06/17 03:24:26;;;;;;;18.33;8.32;;;;;;;35.34;48.07;97724.06;4962667;28;20067;-69
2023/06/17 03:26:58;;;;;;;15.73;7.50;;;;;;;35.19;49.52;97714.06;4966289;28;20054;-70
2023/06/17 03:29:30;;;;;;;20.23;8.85;;;;;;;35.19;51.50;97720.38;4966305;28;20467;-69
2023/06/17 03:31:59;;;;;;;19.40;7.43;;;;;;;35.13;47.13;97719.91;4966378;28;20058;-69
2023/06/17 03:34:32;;;;;;;15.57;5.88;;;;;;;34.95;50.21;97729.13;4967113;28;20046;-69
2023/06/17 03:37:08;;;;;;;10.55;5.47;;;;;;;34.65;45.67;97729.16;4943074;28;20038;-69
2023/06/17 03:39:38;;;;;;;12.88;5.50;;;;;;;34.94;45.92;97727.56;4959287;28;20046;-74
2023/06/17 03:42:08;;;;;;;16.08;4.97;;;;;;;35.27;45.90;97732.25;4934656;28;20139;-72
2023/06/17 03:44:45;;;;;;;13.88;4.50;;;;;;;35.11;45.17;97735.22;4961496;28;20067;-72
2023/06/17 03:47:15;;;;;;;13.80;3.83;;;;;;;35.45;43.81;97734.00;4965202;28;20594;-71
2023/06/17 03:49:45;;;;;;;17.23;4.95;;;;;;;35.27;44.66;97732.25;4965996;28;20089;-73
2023/06/17 03:52:14;;;;;;;13.38;4.80;;;;;;;35.50;44.61;97733.66;4958562;28;20047;-73
2023/06/17 03:54:44;;;;;;;12.18;3.80;;;;;;;35.41;42.67;97733.19;4966422;28;20058;-73
2023/06/17 03:57:15;;;;;;;12.23;4.20;;;;;;;35.82;45.12;97738.69;4958154;28;20050;-72
2023/06/17 03:59:45;;;;;;;12.57;4.72;;;;;;;36.09;44.10;97717.22;4965898;28;20132;-72
2023/06/17 04:02:14;;;;;;;14.88;5.10;;;;;;;36.21;43.20;97717.72;4965543;28;20047;-72
2023/06/17 04:04:44;;;;;;;17.15;5.15;;;;;;;36.43;46.11;97722.16;4966157;28;20066;-68
2023/06/17 04:07:14;;;;;;;16.92;4.82;;;;;;;36.26;43.55;97722.88;4965525;28;20055;-70
2023/06/17 04:09:43;;;;;;;11.80;4.57;;;;;;;36.28;43.52;97723.28;4967408;28;20066;-73
2023/06/17 04:12:35;;;;;;;14.60;5.53;;;;;;;36.35;42.68;97719.75;4948155;28;20470;-70
2023/06/17 04:15:09;;;;;;;15.77;5.30;;;;;;;36.45;42.61;97713.50;4965930;28;20047;-69
2023/06/17 04:17:38;;;;;;;10.23;4.13;;;;;;;36.68;42.07;97711.28;4944833;28;20059;-70
2023/06/17 04:20:12;;;;;;;14.07;4.05;;;;;;;37.07;42.56;97716.94;4961353;28;20098;-72
2023/06/17 04:22:43;;;;;;;15.40;4.20;;;;;;;36.95;41.74;97713.75;4966061;28;20054;-73
2023/06/17 04:25:20;;;;;;;8.48;3.85;;;;;;;36.89;43.80;97716.09;4949251;28;20047;-74
2023/06/17 04:27:53;;;;;;;14.60;4.85;;;;;;;36.48;43.04;97732.84;4959278;28;20058;-72
2023/06/17 04:30:25;;;;;;;14.63;5.22;;;;;;;36.47;41.06;97714.69;4957357;28;20053;-75
2023/06/17 04:32:59;;;;;;;13.20;5.10;;;;;;;37.20;44.29;97715.41;4948806;28;20141;-72
2023/06/17 04:35:30;;;;;;;19.17;4.68;;;;;;;36.95;40.19;97714.53;4966666;28;20047;-71
2023/06/17 04:38:02;;;;;;;19.17;4.93;;;;;;;36.88;43.21;97714.50;4965331;28;20043;-73
2023/06/17 04:40:32;;;;;;;11.13;4.43;;;;;;;36.87;42.29;97718.44;4965726;28;20046;-73
2023/06/17 04:43:02;;;;;;;11.07;4.60;;;;;;;36.99;43.04;97717.28;4959898;28;20078;-72
2023/06/17 04:45:35;;;;;;;18.73;5.05;;;;;;;37.00;42.74;97716.88;4963346;28;20078;-73
2023/06/17 04:48:06;;;;;;;25.55;5.57;;;;;;;36.60;42.77;97725.44;4926228;29;20052;-74
2023/06/17 04:50:37;;;;;;;18.00;4.55;;;;;;;36.65;41.62;97725.84;4927380;29;20058;-74
2023/06/17 04:53:07;;;;;;;16.20;4.82;;;;;;;36.79;43.07;97727.88;4937117;28;20057;-74
2023/06/17 04:55:38;;;;;;;13.57;4.55;;;;;;;37.09;38.66;97725.63;4914221;29;20063;-73
2023/06/17 04:58:09;;;;;;;10.00;4.13;;;;;;;37.10;40.31;97721.69;4930968;29;20822;-74
2023/06/17 05:00:43;;;;;;;18.05;5.43;;;;;;;37.20;38.85;97722.91;4927190;29;20147;-73
2023/06/17 05:03:16;;;;;;;9.63;4.43;;;;;;;37.32;37.67;97722.50;4914048;29;20665;-73
2023/06/17 05:05:46;;;;;;;19.08;4.20;;;;;;;37.53;38.15;97721.78;4929649;29;20058;-71
2023/06/17 05:08:16;;;;;;;18.80;4.60;;;;;;;37.64;39.46;97725.34;4925937;28;20052;-72
2023/06/17 05:10:46;;;;;;;8.68;3.40;;;;;;;37.73;39.90;97725.72;4930075;29;20087;-74
2023/06/17 05:13:16;;;;;;;10.02;3.50;;;;;;;37.86;38.02;97720.59;4929479;29;20106;-71
2023/06/17 05:15:46;;;;;;;13.95;3.85;;;;;;;37.91;42.38;97728.50;4930075;29;20048;-74
2023/06/17 05:18:15;;;;;;;10.90;4.18;;;;;;;37.48;41.14;97719.38;4928306;29;20126;-73
2023/06/17 05:20:45;;;;;;;16.10;4.22;;;;;;;37.80;42.52;97717.44;4907025;29;20051;-72
2023/06/17 05:23:14;;;;;;;16.83;5.28;;;;;;;37.70;43.66;97712.72;4925161;29;20103;-74
2023/06/17 05:25:44;;;;;;;11.82;3.50;;;;;;;37.78;39.02;97723.38;4912920;29;20676;-72
2023/06/17 05:28:14;;;;;;;11.85;4.03;;;;;;;37.49;38.32;97712.69;4937698;28;20087;-72
2023/06/17 05:30:45;;;;;;;14.50;4.45;;;;;;;38.08;41.13;97711.09;4926709;29;20047;-77
2023/06/17 05:33:17;;;;;;;9.90;4.40;;;;;;;38.26;40.62;97711.06;4927544;29;20047;-71
2023/06/17 05:35:48;;;;;;;12.50;4.32;;;;;;;37.54;37.76;97718.63;4930165;29;20506;-69
2023/06/17 05:38:17;;;;;;;11.75;5.43;;;;;;;37.55;37.21;97717.44;4926281;28;20652;-72
2023/06/17 05:40:48;;;;;;;12.60;4.03;;;;;;;37.78;42.39;97723.38;4918262;29;20055;-73
2023/06/17 05:43:36;;;;;;;8.20;3.92;;;;;;;37.84;40.75;97722.97;4898686;29;20408;-74
2023/06/17 05:46:12;;;;;;;15.70;4.22;;;;;;;37.57;38.32;97719.81;4907456;28;20054;-70
2023/06/17 05:48:42;;;;;;;21.73;4.97;;;;;;;37.06;38.56;97723.66;4955450;28;20053;-70
2023/06/17 05:51:11;;;;;;;11.15;4.32;;;;;;;37.49;39.64;97724.50;4967472;28;20046;-70
2023/06/17 05:53:41;;;;;;;13.40;4.60;;;;;;;37.59;40.59;97720.19;4961203;28;20482;-72
2023/06/17 05:56:14;;;;;;;8.90;4.03;;;;;;;38.00;40.24;97726.13;4949830;28;20043;-71
2023/06/17 05:58:44;;;;;;;10.95;4.57;;;;;;;37.57;38.85;97717.84;4959365;28;20058;-73
2023/06/17 06:01:25;;;;;;;15.02;4.28;;;;;;;37.70;41.22;97721.00;4947586;28;20474;-68
2023/06/17 06:03:56;;;;;;;19.55;4.05;;;;;;;37.70;40.70;97721.00;4959193;28;20047;-70
2023/06/17 06:06:25;;;;;;;16.55;4.32;;;;;;;37.74;36.88;97713.50;4966859;28;20086;-68
2023/06/17 06:08:55;;;;;;;13.10;5.18;;;;;;;37.90;37.43;97718.59;4961134;28;20073;-72
2023/06/17 06:11:24;;;;;;;13.27;4.25;;;;;;;37.89;40.60;97723.34;4966738;28;20055;-73
2023/06/17 06:13:55;;;;;;;17.48;4.63;;;;;;;37.21;36.99;97713.44;4967956;28;20117;-71
2023/06/17 06:16:24;;;;;;;12.00;3.97;;;;;;;37.52;36.83;97720.22;4967635;28;20047;-69
2023/06/17 06:18:54;;;;;;;9.85;4.13;;;;;;;37.26;41.43;97708.31;4968531;28;20054;-72
2023/06/17 06:21:24;;;;;;;12.98;4.28;;;;;;;37.75;41.14;97718.63;4964834;28;20050;-70
2023/06/17 06:23:53;;;;;;;12.07;4.38;;;;;;;37.92;36.49;97717.03;4958440;28;20065;-69
2023/06/17 06:26:29;;;;;;;16.67;4.90;;;;;;;37.67;35.91;97719.00;4956293;28;20070;-69
2023/06/17 06:28:59;;;;;;;11.15;4.60;;;;;;;37.60;37.06;97716.25;4966439;28;20046;-69
2023/06/17 06:31:29;;;;;;;13.23;4.35;;;;;;;37.36;37.60;97712.25;4966329;28;20050;-68
2023/06/17 06:33:58;;;;;;;11.90;4.30;;;;;;;37.16;36.14;97713.81;4966863;28;20058;-70
2023/06/17 06:36:27;;;;;;;14.77;4.53;;;;;;;37.31;38.35;97710.66;4964948;28;20051;-70
2023/06/17 06:38:57;;;;;;;14.88;4.90;;;;;;;37.65;37.38;97707.56;4959194;28;20092;-69
2023/06/17 06:41:26;;;;;;;9.73;4.03;;;;;;;37.86;41.13;97707.56;4967305;28;20448;-69
2023/06/17 06:44:03;;;;;;;14.00;3.88;;;;;;;37.86;38.56;97717.81;4959210;28;20173;-69
2023/06/17 06:46:33;;;;;;;8.10;3.97;;;;;;;37.57;38.57;97712.31;4962490;28;20093;-73
2023/06/17 06:49:02;;;;;;;15.07;4.30;;;;;;;37.57;40.01;97703.25;4942461;28;20047;-69
2023/06/17 06:51:32;;;;;;;10.77;3.90;;;;;;;37.71;41.81;97701.25;4958627;28;20043;-68
2023/06/17 06:54:03;;;;;;;14.40;4.25;;;;;;;37.40;39.32;97702.00;4952196;28;20046;-68
2023/06/17 06:56:33;;;;;;;15.43;5.43;;;;;;;37.43;37.45;97711.47;4957341;28;20070;-71
2023/06/17 06:59:02;;;;;;;17.85;5.25;;;;;;;37.42;41.35;97704.38;4956844;28;20475;-74
2023/06/17 07:01:32;;;;;;;11.90;3.92;;;;;;;37.17;38.09;97699.63;4961343;28;20046;-73
2023/06/17 07:04:03;;;;;;;17.20;4.20;;;;;;;37.41;38.43;97700.81;4957624;28;20058;-73
2023/06/17 07:06:33;;;;;;;14.73;4.38;;;;;;;37.31;38.88;97693.31;4956945;28;20058;-75
2023/06/17 07:09:06;;;;;;;15.07;4.35;;;;;;;37.35;40.25;97694.88;4942750;28;20047;-71
2023/06/17 07:11:36;;;;;;;13.35;4.43;;;;;;;37.35;39.08;97691.34;4957581;28;20046;-72
2023/06/17 07:14:06;;;;;;;13.93;4.20;;;;;;;37.38;37.71;97687.78;4944493;28;20065;-70
2023/06/17 07:16:36;;;;;;;14.20;4.60;;;;;;;37.30;39.51;97691.75;4956949;28;20043;-68
2023/06/17 07:19:05;;;;;;;6.88;3.70;;;;;;;37.17;37.73;97685.81;4947348;28;20051;-68
2023/06/17 07:21:35;;;;;;;12.63;4.05;;;;;;;37.25;36.58;97681.88;4948471;28;20057;-67
2023/06/17 07:24:05;;;;;;;7.32;3.95;;;;;;;37.01;34.81;97679.81;4945853;28;20383;-74
2023/06/17 07:26:34;;;;;;;9.13;3.95;;;;;;;37.15;36.38;97677.13;4948392;28;20155;-71
2023/06/17 07:29:05;;;;;;;11.63;3.30;;;;;;;37.37;36.40;97671.59;4952309;28;20763;-69
2023/06/17 07:31:35;;;;;;;9.88;3.65;;;;;;;37.39;37.87;97672.00;4949597;28;20047;-67
2023/06/17 07:34:05;;;;;;;7.38;3.40;;;;;;;37.45;36.26;97665.69;4944853;28;20130;-68
2023/06/17 07:36:34;;;;;;;12.02;4.57;;;;;;;37.34;33.85;97653.84;4952697;28;20051;-70
2023/06/17 07:39:05;;;;;;;10.80;6.22;;;;;;;37.28;38.60;97653.44;4957270;28;20536;-69
2023/06/17 07:41:34;;;;;;;11.32;5.53;;;;;;;37.17;34.62;97646.34;4957291;28;20047;-69
2023/06/17 07:44:04;;;;;;;18.00;6.30;;;;;;;37.21;35.85;97650.69;4941701;28;20052;-69
2023/06/17 07:46:33;;;;;;;13.80;5.90;;;;;;;37.21;37.12;97642.41;4882259;28;2235754;-72
2023/06/17 07:49:03;;;;;;;17.92;6.97;;;;;;;37.17;34.72;97644.38;4963642;28;20571;-69
2023/06/17 07:51:33;;;;;;;12.90;6.40;;;;;;;37.18;35.49;97643.19;4964813;28;20051;-69
2023/06/17 07:54:07;;;;;;;13.77;6.25;;;;;;;37.13;36.91;97642.81;4963453;28;20116;-68
2023/06/17 07:56:37;;;;;;;20.80;7.32;;;;;;;36.86;36.32;97634.06;4976643;28;20066;-72
2023/06/17 07:59:06;;;;;;;18.70;8.30;;;;;;;36.83;35.94;97632.06;4977658;28;20038;-70
2023/06/17 08:01:37;;;;;;;16.05;8.57;;;;;;;36.88;37.85;97629.72;4971682;28;20055;-67
2023/06/17 08:04:06;;;;;;;19.98;8.05;;;;;;;36.80;37.04;97621.81;4978053;28;20053;-71
2023/06/17 08:06:37;;;;;;;17.60;7.60;;;;;;;36.65;38.67;97614.66;4975788;28;20057;-71
2023/06/17 08:09:08;;;;;;;18.25;7.15;;;;;;;36.82;39.65;97611.94;4958596;28;20554;-70
2023/06/17 08:11:38;;;;;;;16.67;7.15;;;;;;;36.76;38.60;97613.53;4942899;28;20788;-67
2023/06/17 08:14:07;;;;;;;13.60;7.00;;;;;;;36.66;37.75;97613.50;4977080;28;20055;-70
2023/06/17 08:16:36;;;;;;;18.60;6.80;;;;;;;36.44;38.28;97598.81;4971008;28;20051;-69
2023/06/17 08:19:06;;;;;;;11.98;5.93;;;;;;;36.31;39.48;97586.56;4974604;28;20050;-71
2023/06/17 08:21:37;;;;;;;14.13;6.72;;;;;;;36.30;38.87;97602.31;4949195;28;20791;-71
2023/06/17 08:24:21;;;;;;;14.93;6.78;;;;;;;36.37;41.53;97599.59;4961224;28;20649;-73
2023/06/17 08:26:51;;;;;;;20.13;9.60;;;;;;;36.41;40.44;97599.59;4960827;28;20051;-70
2023/06/17 08:29:25;;;;;;;18.58;9.00;;;;;;;36.28;40.37;97599.16;4942977;28;20054;-71
2023/06/17 08:32:00;;;;;;;22.48;8.40;;;;;;;36.23;38.95;97596.00;4945784;28;20046;-71
2023/06/17 08:34:31;;;;;;;22.05;8.50;;;;;;;36.31;44.20;97592.88;4968075;28;20129;-68
2023/06/17 08:37:04;;;;;;;24.40;9.32;;;;;;;36.12;41.38;97593.19;4968023;28;20054;-69
2023/06/17 08:39:38;;;;;;;19.05;7.55;;;;;;;36.09;41.84;97588.41;4965595;28;20050;-68
2023/06/17 08:42:09;;;;;;;19.55;7.63;;;;;;;36.12;41.30;97578.59;4969840;28;20054;-74
2023/06/17 08:44:45;;;;;;;16.67;7.65;;;;;;;36.23;41.37;97580.25;4960819;28;20749;-72
2023/06/17 08:47:16;;;;;;;22.70;9.73;;;;;;;36.25;40.06;97583.38;4962924;28;20478;-73
2023/06/17 08:49:46;;;;;;;15.40;8.82;;;;;;;36.15;40.90;97580.59;4961455;28;20135;-75
2023/06/17 08:52:16;;;;;;;12.73;6.60;;;;;;;36.16;41.01;97582.94;4942942;28;20378;-76
2023/06/17 08:54:46;;;;;;;19.50;8.38;;;;;;;36.23;40.65;97569.22;4966203;28;20054;-69
2023/06/17 08:57:17;;;;;;;18.40;8.13;;;;;;;36.34;40.55;97569.22;4949959;28;20085;-69
2023/06/17 09:00:04;;;;;;;11.40;7.18;;;;;;;36.38;41.65;97572.81;4976229;28;20099;-68
2023/06/17 09:02:36;;;;;;;20.23;8.20;;;;;;;36.35;40.66;97565.28;4962375;28;20050;-69
2023/06/17 09:05:06;;;;;;;19.58;8.27;;;;;;;36.34;39.35;97564.50;4975496;28;20050;-70
2023/06/17 09:07:37;;;;;;;19.00;8.43;;;;;;;36.34;38.92;97569.22;4956778;28;20543;-73
2023/06/17 09:10:11;;;;;;;19.05;7.80;;;;;;;36.33;39.80;97560.19;4975376;28;20057;-73
2023/06/17 09:12:41;;;;;;;16.80;6.43;;;;;;;36.26;40.70;97562.91;4955267;28;20701;-72
2023/06/17 09:15:16;;;;;;;17.45;7.28;;;;;;;36.14;41.95;97549.47;4965448;28;20144;-70
2023/06/17 09:17:47;;;;;;;16.13;7.50;;;;;;;36.17;42.12;97554.19;4950854;28;20378;-68
2023/06/17 09:20:23;;;;;;;15.48;6.78;;;;;;;36.25;42.44;97550.28;4972668;28;20042;-69
2023/06/17 09:22:53;;;;;;;13.02;6.97;;;;;;;36.20;41.84;97552.66;4965509;28;20058;-69
2023/06/17 09:25:23;;;;;;;12.63;6.70;;;;;;;36.22;41.29;97545.56;4948734;28;20043;-72
2023/06/17 09:27:54;;;;;;;14.48;8.32;;;;;;;36.20;38.86;97538.88;4952139;28;20063;-71
2023/06/17 09:30:27;;;;;;;12.82;7.10;;;;;;;36.17;39.30;97536.88;4969869;28;20038;-72
2023/06/17 09:32:57;;;;;;;13.57;6.10;;;;;;;36.12;37.63;97529.75;4952117;28;20449;-72
2023/06/17 09:35:27;;;;;;;15.80;5.80;;;;;;;36.18;38.02;97530.19;4963230;28;20065;-72
2023/06/17 09:37:56;;;;;;;19.08;6.95;;;;;;;36.15;38.31;97525.44;4961627;28;20131;-73
2023/06/17 09:40:52;;;;;;;12.32;7.32;;;;;;;36.20;37.78;97517.59;4973501;28;20153;-72
2023/06/17 09:43:26;;;;;;;15.02;7.28;;;;;;;36.21;38.65;97504.56;4941371;28;20058;-73
2023/06/17 09:46:04;;;;;;;10.68;5.90;;;;;;;36.22;38.93;97506.94;4950135;28;20046;-72
2023/06/17 09:48:38;;;;;;;14.30;5.60;;;;;;;36.13;37.63;97503.78;4955314;28;20050;-72
2023/06/17 09:51:12;;;;;;;11.60;5.57;;;;;;;36.04;38.40;97501.34;4941699;28;20605;-71
2023/06/17 09:53:47;;;;;;;10.48;5.65;;;;;;;36.02;37.90;97498.22;4956531;28;20046;-70
2023/06/17 09:56:18;;;;;;;9.98;5.28;;;;;;;36.01;39.06;97493.88;4970305;28;20042;-69
2023/06/17 09:58:50;;;;;;;8.20;5.75;;;;;;;35.99;38.55;97481.63;4973603;28;20057;-71
2023/06/17 10:01:21;;;;;;;11.63;5.00;;;;;;;36.04;40.00;97484.81;4956860;28;20486;-70
2023/06/17 10:03:51;;;;;;;10.52;5.38;;;;;;;36.04;39.43;97473.78;4972739;28;20515;-72
2023/06/17 10:06:24;;;;;;;7.18;4.32;;;;;;;36.04;39.29;97468.28;4974068;28;20817;-70
2023/06/17 10:08:54;;;;;;;10.18;5.05;;;;;;;36.00;40.25;97463.94;4957357;28;20058;-70
2023/06/17 10:11:25;;;;;;;10.10;5.40;;;;;;;35.91;39.62;97458.00;4955166;28;20085;-71
2023/06/17 10:14:13;;;;;;;11.45;5.72;;;;;;;35.99;39.45;97454.06;4971718;28;20082;-73
2023/06/17 10:16:47;;;;;;;10.38;5.85;;;;;;;36.01;39.24;97457.25;4960826;28;20674;-72
2023/06/17 10:19:22;;;;;;;14.85;6.55;;;;;;;36.00;38.40;97447.38;4970168;28;20378;-72
2023/06/17 10:21:55;;;;;;;12.20;5.32;;;;;;;36.12;38.81;97437.97;4956403;28;20356;-70
2023/06/17 10:24:25;;;;;;;10.13;5.43;;;;;;;35.99;39.42;97440.28;4940854;28;20051;-70
2023/06/17 10:27:03;;;;;;;8.60;4.90;;;;;;;35.87;39.85;97435.16;4959938;28;20517;-70
2023/06/17 10:29:33;;;;;;;9.70;4.95;;;;;;;35.82;40.51;97436.31;4967336;28;20350;-71
2023/06/17 10:32:31;;;;;;;10.30;4.68;;;;;;;35.89;38.82;97438.31;4958423;28;20054;-68
2023/06/17 10:35:10;;;;;;;10.02;4.70;;;;;;;35.94;38.04;97432.41;4964168;28;20493;-67
2023/06/17 10:37:42;;;;;;;9.82;4.57;;;;;;;35.81;38.48;97433.94;4934610;28;20047;-68
2023/06/17 10:40:20;;;;;;;12.65;5.53;;;;;;;35.76;38.99;97435.09;4976593;28;20136;-68
2023/06/17 10:43:18;;;;;;;15.50;5.32;;;;;;;35.71;39.36;97432.75;4978516;28;20047;-67
2023/06/17 10:45:49;;;;;;;13.10;4.97;;;;;;;35.68;37.82;97422.47;4962801;28;20051;-68
2023/06/17 10:48:29;;;;;;;16.55;6.53;;;;;;;35.62;38.72;97424.03;4975915;28;20042;-66
2023/06/17 10:51:02;;;;;;;11.35;6.47;;;;;;;35.58;39.54;97418.47;4962002;28;20050;-68
2023/06/17 10:53:35;;;;;;;12.43;5.70;;;;;;;35.52;38.37;97425.56;4963209;28;20061;-67
2023/06/17 10:56:09;;;;;;;12.93;4.80;;;;;;;35.50;39.47;97419.63;4976982;28;20053;-65
2023/06/17 10:58:47;;;;;;;12.98;6.30;;;;;;;35.53;38.67;97418.88;4962675;28;20046;-69
2023/06/17 11:01:16;;;;;;;11.52;5.95;;;;;;;35.58;39.07;97412.19;4960627;28;20567;-70
2023/06/17 11:03:48;;;;;;;8.80;5.40;;;;;;;35.44;38.68;97404.66;4964946;28;20046;-66
2023/06/17 11:06:18;;;;;;;9.68;4.93;;;;;;;35.43;38.61;97405.84;4975902;28;20073;-66
2023/06/17 11:08:48;;;;;;;10.90;4.75;;;;;;;35.55;40.21;97401.94;4962768;28;20050;-65
2023/06/17 11:11:18;;;;;;;12.35;6.03;;;;;;;35.62;40.24;97401.19;4944466;28;20123;-65
2023/06/17 11:13:47;;;;;;;13.70;6.40;;;;;;;35.52;39.15;97398.00;4976478;28;20065;-65
2023/06/17 11:16:17;;;;;;;11.60;6.22;;;;;;;35.46;40.16;97396.00;4977228;28;20081;-67
2023/06/17 11:18:47;;;;;;;17.13;6.57;;;;;;;35.33;40.60;97381.78;4961951;28;20050;-70
2023/06/17 11:21:19;;;;;;;12.40;4.80;;;;;;;35.32;41.06;97388.47;4964479;28;20038;-69
2023/06/17 11:23:48;;;;;;;8.98;4.35;;;;;;;35.30;40.70;97385.31;4976893;28;20109;-69
2023/06/17 11:26:24;;;;;;;16.30;4.38;;;;;;;35.32;41.76;97380.22;4950911;28;20050;-68
2023/06/17 11:29:05;;;;;;;9.80;4.88;;;;;;;35.30;40.45;97379.03;4962968;28;20454;-65
2023/06/17 11:31:40;;;;;;;10.38;4.78;;;;;;;35.24;40.96;97380.56;4979425;28;20055;-66
2023/06/17 11:34:11;;;;;;;9.88;4.50;;;;;;;35.27;40.48;97369.59;4981553;28;20378;-69
2023/06/17 11:36:41;;;;;;;14.57;4.70;;;;;;;35.22;40.07;97356.19;4979118;28;20073;-70
2023/06/17 11:39:12;;;;;;;10.48;5.22;;;;;;;35.26;39.23;97358.94;4976806;28;20137;-68
2023/06/17 11:41:42;;;;;;;9.30;4.22;;;;;;;35.21;40.44;97364.81;4956826;28;20082;-67
2023/06/17 11:44:13;;;;;;;11.77;3.65;;;;;;;35.20;40.61;97353.03;4616737;28;10000608;-69
2023/06/17 11:46:43;;;;;;;8.98;4.00;;;;;;;35.16;40.91;97354.97;4973084;28;20138;-69